createdAt,value
2024-01-20T00:00:54.772Z,21.94
2024-01-20T00:01:54.769Z,21.94
2024-01-20T00:02:54.750Z,21.94
2024-01-20T00:03:54.767Z,21.94
2024-01-20T00:04:54.800Z,21.94
2024-01-20T00:05:54.717Z,21.93
2024-01-20T00:06:54.767Z,21.94
2024-01-20T00:07:54.717Z,21.94
2024-01-20T00:08:54.687Z,21.93
2024-01-20T00:09:54.692Z,21.93
2024-01-20T00:10:54.710Z,21.93
2024-01-20T00:11:54.647Z,21.93
2024-01-20T00:12:54.741Z,21.93
2024-01-20T00:13:54.668Z,21.94
2024-01-20T00:14:54.630Z,21.94
2024-01-20T00:15:54.621Z,21.93
2024-01-20T00:16:55.343Z,21.93
2024-01-20T00:17:54.644Z,21.93
2024-01-20T00:18:54.740Z,21.92
2024-01-20T00:19:55.473Z,21.93
2024-01-20T00:20:54.592Z,21.93
2024-01-20T00:21:54.574Z,21.92
2024-01-20T00:22:54.601Z,21.93
2024-01-20T00:23:54.561Z,21.92
2024-01-20T00:24:54.537Z,21.93
2024-01-20T00:25:54.561Z,21.93
2024-01-20T00:26:54.519Z,21.93
2024-01-20T00:27:55.146Z,21.92
2024-01-20T00:28:54.553Z,21.92
2024-01-20T00:29:54.496Z,21.92
2024-01-20T00:30:54.501Z,21.93
2024-01-20T00:31:54.536Z,21.91
2024-01-20T00:32:54.552Z,21.92
2024-01-20T00:33:54.548Z,21.92
2024-01-20T00:35:04.270Z,21.91
2024-01-20T00:35:55.533Z,21.91
2024-01-20T00:36:54.459Z,21.91
2024-01-20T00:37:54.489Z,21.92
2024-01-20T00:38:54.443Z,21.91
2024-01-20T00:39:54.428Z,21.92
2024-01-20T00:40:54.460Z,21.92
2024-01-20T00:41:54.422Z,21.91
2024-01-20T00:42:54.415Z,21.91
2024-01-20T00:43:54.453Z,21.91
2024-01-20T00:44:54.401Z,21.91
2024-01-20T00:45:54.397Z,21.91
2024-01-20T00:46:54.390Z,21.91
2024-01-20T00:47:54.424Z,21.91
2024-01-20T00:48:54.396Z,21.91
2024-01-20T00:49:54.403Z,21.91
2024-01-20T00:50:54.357Z,21.91
2024-01-20T00:51:54.437Z,21.92
2024-01-20T00:52:54.425Z,21.92
2024-01-20T00:53:54.341Z,21.92
2024-01-20T00:54:54.342Z,21.91
2024-01-20T00:55:54.358Z,21.91
2024-01-20T00:56:54.415Z,21.91
2024-01-20T00:57:54.296Z,21.91
2024-01-20T00:58:54.365Z,21.91
2024-01-20T00:59:54.290Z,21.91
2024-01-20T01:00:54.347Z,21.90
2024-01-20T01:01:54.311Z,21.90
2024-01-20T01:02:54.310Z,21.91
2024-01-20T01:03:54.306Z,21.90
2024-01-20T01:04:54.281Z,21.89
2024-01-20T01:05:54.310Z,21.90
2024-01-20T01:06:54.222Z,21.90
2024-01-20T01:07:54.219Z,21.89
2024-01-20T01:08:54.252Z,21.89
2024-01-20T01:09:54.248Z,21.90
2024-01-20T01:10:54.218Z,21.90
2024-01-20T01:11:54.269Z,21.89
2024-01-20T01:12:54.274Z,21.89
2024-01-20T01:13:54.210Z,21.90
2024-01-20T01:14:54.155Z,21.90
2024-01-20T01:15:55.290Z,21.90
2024-01-20T01:16:54.191Z,21.89
2024-01-20T01:17:54.213Z,21.90
2024-01-20T01:18:54.182Z,21.90
2024-01-20T01:19:54.213Z,21.89
2024-01-20T01:20:54.201Z,21.88
2024-01-20T01:21:54.209Z,21.89
2024-01-20T01:22:54.242Z,21.90
2024-01-20T01:23:54.216Z,21.89
2024-01-20T01:24:54.201Z,21.89
2024-01-20T01:25:54.275Z,21.89
2024-01-20T01:26:54.206Z,21.89
2024-01-20T01:27:54.196Z,21.89
2024-01-20T01:28:54.231Z,21.88
2024-01-20T01:29:54.199Z,21.88
2024-01-20T01:30:54.172Z,21.89
2024-01-20T01:31:54.202Z,21.89
2024-01-20T01:32:54.202Z,21.88
2024-01-20T01:33:54.307Z,21.89
2024-01-20T01:34:54.234Z,21.89
2024-01-20T01:35:54.144Z,21.89
2024-01-20T01:36:54.142Z,21.89
2024-01-20T01:37:54.162Z,21.88
2024-01-20T01:38:55.014Z,21.88
2024-01-20T01:39:54.114Z,21.88
2024-01-20T01:40:54.148Z,21.88
2024-01-20T01:41:54.089Z,21.88
2024-01-20T01:42:54.087Z,21.88
2024-01-20T01:43:55.019Z,21.88
2024-01-20T01:44:54.065Z,21.88
2024-01-20T01:45:54.052Z,21.87
2024-01-20T01:46:54.092Z,21.88
2024-01-20T01:47:54.068Z,21.88
2024-01-20T01:48:54.572Z,21.86
2024-01-20T01:49:54.093Z,21.87
2024-01-20T01:50:54.064Z,21.88
2024-01-20T01:51:54.027Z,21.87
2024-01-20T01:52:54.030Z,21.87
2024-01-20T01:53:54.951Z,21.87
2024-01-20T01:54:54.046Z,21.87
2024-01-20T01:55:54.031Z,21.87
2024-01-20T01:56:54.056Z,21.86
2024-01-20T01:57:54.021Z,21.87
2024-01-20T01:58:54.017Z,21.86
2024-01-20T01:59:54.064Z,21.87
2024-01-20T02:00:54.033Z,21.87
2024-01-20T02:01:54.020Z,21.87
2024-01-20T02:02:54.041Z,21.87
2024-01-20T02:03:54.131Z,21.87
2024-01-20T02:04:54.015Z,21.87
2024-01-20T02:05:54.043Z,21.86
2024-01-20T02:06:54.192Z,21.87
2024-01-20T02:07:53.978Z,21.87
2024-01-20T02:08:54.017Z,21.87
2024-01-20T02:09:53.957Z,21.87
2024-01-20T02:10:53.952Z,21.86
2024-01-20T02:11:53.956Z,21.87
2024-01-20T02:12:53.935Z,21.86
2024-01-20T02:13:53.936Z,21.86
2024-01-20T02:14:53.922Z,21.86
2024-01-20T02:15:53.896Z,21.87
2024-01-20T02:16:53.891Z,21.87
2024-01-20T02:17:54.038Z,21.87
2024-01-20T02:18:53.974Z,21.86
2024-01-20T02:19:53.851Z,21.86
2024-01-20T02:20:53.866Z,21.86
2024-01-20T02:21:53.833Z,21.86
2024-01-20T02:22:53.838Z,21.85
2024-01-20T02:23:53.866Z,21.86
2024-01-20T02:24:53.820Z,21.87
2024-01-20T02:25:53.825Z,21.87
2024-01-20T02:26:53.845Z,21.86
2024-01-20T02:27:53.832Z,21.86
2024-01-20T02:32:53.859Z,21.68
2024-01-20T02:33:53.902Z,21.76
2024-01-20T02:34:53.729Z,21.78
2024-01-20T02:35:53.728Z,21.80
2024-01-20T02:36:53.724Z,21.82
2024-01-20T02:37:53.710Z,21.83
2024-01-20T02:38:53.721Z,21.85
2024-01-20T02:39:53.700Z,21.83
2024-01-20T02:40:53.693Z,21.85
2024-01-20T02:41:53.689Z,21.84
2024-01-20T02:42:53.673Z,21.84
2024-01-20T02:43:53.675Z,21.86
2024-01-20T02:44:53.746Z,21.86
2024-01-20T02:45:53.710Z,21.85
2024-01-20T02:46:53.689Z,21.85
2024-01-20T02:47:53.807Z,21.85
2024-01-20T02:48:53.793Z,21.85
2024-01-20T02:49:53.736Z,21.85
2024-01-20T02:50:53.661Z,21.86
2024-01-20T02:51:53.610Z,21.85
2024-01-20T02:52:53.599Z,21.85
2024-01-20T02:53:53.628Z,21.85
2024-01-20T02:54:53.617Z,21.85
2024-01-20T02:55:53.588Z,21.85
2024-01-20T02:56:53.604Z,21.85
2024-01-20T02:57:53.607Z,21.85
2024-01-20T02:58:53.585Z,21.84
2024-01-20T02:59:53.615Z,21.84
2024-01-20T03:00:53.595Z,21.85
2024-01-20T03:01:53.572Z,21.85
2024-01-20T03:02:53.719Z,21.85
2024-01-20T03:03:53.683Z,21.84
2024-01-20T03:04:53.587Z,21.85
2024-01-20T03:05:53.653Z,21.86
2024-01-20T03:06:53.569Z,21.84
2024-01-20T03:07:53.569Z,21.84
2024-01-20T03:08:53.610Z,21.84
2024-01-20T03:09:53.575Z,21.85
2024-01-20T03:10:53.569Z,21.85
2024-01-20T03:11:53.565Z,21.84
2024-01-20T03:12:53.554Z,21.84
2024-01-20T03:13:53.562Z,21.85
2024-01-20T03:14:53.603Z,21.85
2024-01-20T03:15:53.557Z,21.85
2024-01-20T03:16:53.579Z,21.84
2024-01-20T03:17:53.621Z,21.85
2024-01-20T03:18:53.573Z,21.85
2024-01-20T03:19:53.547Z,21.86
2024-01-20T03:20:53.566Z,21.84
2024-01-20T03:21:53.516Z,21.84
2024-01-20T03:22:53.520Z,21.84
2024-01-20T03:23:53.543Z,21.85
2024-01-20T03:24:53.508Z,21.85
2024-01-20T03:25:53.504Z,21.84
2024-01-20T03:26:54.598Z,21.85
2024-01-20T03:27:53.500Z,21.84
2024-01-20T03:28:53.487Z,21.84
2024-01-20T03:29:53.506Z,21.84
2024-01-20T03:30:53.476Z,21.84
2024-01-20T03:31:53.476Z,21.85
2024-01-20T03:32:53.553Z,21.85
2024-01-20T03:33:53.622Z,21.84
2024-01-20T03:34:53.492Z,21.84
2024-01-20T03:35:53.465Z,21.85
2024-01-20T03:36:53.433Z,21.85
2024-01-20T03:37:53.461Z,21.85
2024-01-20T03:38:53.502Z,21.85
2024-01-20T03:39:53.433Z,21.84
2024-01-20T03:40:53.424Z,21.85
2024-01-20T03:41:53.451Z,21.84
2024-01-20T03:42:53.404Z,21.84
2024-01-20T03:43:53.402Z,21.84
2024-01-20T03:44:53.418Z,21.84
2024-01-20T03:45:53.407Z,21.84
2024-01-20T03:46:53.433Z,21.84
2024-01-20T03:47:53.460Z,21.84
2024-01-20T03:48:53.648Z,21.84
2024-01-20T03:49:53.405Z,21.84
2024-01-20T03:50:53.422Z,21.83
2024-01-20T03:51:53.384Z,21.83
2024-01-20T03:52:53.382Z,21.84
2024-01-20T03:53:53.392Z,21.84
2024-01-20T03:54:53.380Z,21.83
2024-01-20T03:55:53.363Z,21.84
2024-01-20T03:56:53.401Z,21.84
2024-01-20T03:57:53.356Z,21.84
2024-01-20T03:58:53.379Z,21.83
2024-01-20T03:59:53.396Z,21.84
2024-01-20T04:00:53.381Z,21.85
2024-01-20T04:01:53.330Z,21.84
2024-01-20T04:02:53.433Z,21.84
2024-01-20T04:03:53.461Z,21.85
2024-01-20T04:04:53.380Z,21.85
2024-01-20T04:05:53.365Z,21.85
2024-01-20T04:06:53.311Z,21.83
2024-01-20T04:07:53.316Z,21.84
2024-01-20T04:08:53.343Z,21.85
2024-01-20T04:09:53.336Z,21.85
2024-01-20T04:10:53.306Z,21.84
2024-01-20T04:11:53.372Z,21.83
2024-01-20T04:12:53.308Z,21.83
2024-01-20T04:13:53.326Z,21.84
2024-01-20T04:14:53.347Z,21.84
2024-01-20T04:15:53.325Z,21.84
2024-01-20T04:16:53.296Z,21.84
2024-01-20T04:17:53.422Z,21.83
2024-01-20T04:18:53.364Z,21.85
2024-01-20T04:19:53.295Z,21.84
2024-01-20T04:20:53.362Z,21.84
2024-01-20T04:21:53.298Z,21.84
2024-01-20T04:22:53.302Z,21.84
2024-01-20T04:23:53.382Z,21.83
2024-01-20T04:24:53.304Z,21.83
2024-01-20T04:25:53.308Z,21.83
2024-01-20T04:26:53.317Z,21.84
2024-01-20T04:27:53.291Z,21.83
2024-01-20T04:28:53.283Z,21.83
2024-01-20T04:29:53.302Z,21.84
2024-01-20T04:31:00.511Z,21.81
2024-01-20T04:32:00.534Z,21.82
2024-01-20T04:33:00.570Z,21.83
2024-01-20T04:34:00.623Z,21.83
2024-01-20T04:35:00.540Z,21.82
2024-01-20T04:36:00.619Z,21.82
2024-01-20T04:37:00.581Z,21.84
2024-01-20T04:38:00.570Z,21.83
2024-01-20T04:39:00.599Z,21.83
2024-01-20T04:40:00.593Z,21.83
2024-01-20T04:41:00.594Z,21.83
2024-01-20T04:42:00.660Z,21.84
2024-01-20T04:43:00.622Z,21.84
2024-01-20T04:44:00.678Z,21.85
2024-01-20T04:45:00.719Z,21.84
2024-01-20T04:46:00.701Z,21.84
2024-01-20T04:47:00.741Z,21.84
2024-01-20T04:48:00.810Z,21.84
2024-01-20T04:49:00.956Z,21.84
2024-01-20T04:50:00.758Z,21.84
2024-01-20T04:51:00.786Z,21.84
2024-01-20T04:52:00.766Z,21.85
2024-01-20T04:53:00.760Z,21.84
2024-01-20T04:54:00.793Z,21.84
2024-01-20T04:55:00.770Z,21.85
2024-01-20T04:56:00.777Z,21.84
2024-01-20T04:57:00.817Z,21.83
2024-01-20T04:58:00.799Z,21.84
2024-01-20T04:59:00.864Z,21.83
2024-01-20T05:00:00.922Z,21.83
2024-01-20T05:01:00.900Z,21.83
2024-01-20T05:02:00.855Z,21.84
2024-01-20T05:03:00.912Z,21.84
2024-01-20T05:04:01.012Z,21.85
2024-01-20T05:05:00.899Z,21.85
2024-01-20T05:06:00.927Z,21.84
2024-01-20T05:07:00.968Z,21.84
2024-01-20T05:08:00.876Z,21.83
2024-01-20T05:09:00.911Z,21.84
2024-01-20T05:10:00.907Z,21.84
2024-01-20T05:11:00.917Z,21.84
2024-01-20T05:12:01.027Z,21.84
2024-01-20T05:13:01.071Z,21.84
2024-01-20T05:14:01.152Z,21.84
2024-01-20T05:15:01.242Z,21.84
2024-01-20T05:16:01.219Z,21.84
2024-01-20T05:17:01.265Z,21.84
2024-01-20T05:18:01.393Z,21.84
2024-01-20T05:19:01.451Z,21.83
2024-01-20T05:20:01.649Z,21.83
2024-01-20T05:21:01.491Z,21.84
2024-01-20T05:22:01.530Z,21.83
2024-01-20T05:23:01.516Z,21.82
2024-01-20T05:24:01.557Z,21.83
2024-01-20T05:25:01.547Z,21.83
2024-01-20T05:26:01.532Z,21.83
2024-01-20T05:27:01.604Z,21.82
2024-01-20T05:28:01.565Z,21.83
2024-01-20T05:29:01.563Z,21.84
2024-01-20T05:30:01.656Z,21.83
2024-01-20T05:31:01.558Z,21.82
2024-01-20T05:32:01.604Z,21.82
2024-01-20T05:33:01.795Z,21.83
2024-01-20T05:34:01.731Z,21.83
2024-01-20T05:35:01.570Z,21.82
2024-01-20T05:36:01.656Z,21.82
2024-01-20T05:37:01.663Z,21.82
2024-01-20T05:38:01.681Z,21.82
2024-01-20T05:39:01.766Z,21.82
2024-01-20T05:40:01.769Z,21.82
2024-01-20T05:41:01.809Z,21.82
2024-01-20T05:42:01.899Z,21.83
2024-01-20T05:43:01.932Z,21.82
2024-01-20T05:44:01.937Z,21.83
2024-01-20T05:45:01.960Z,21.82
2024-01-20T05:46:01.935Z,21.82
2024-01-20T05:47:01.952Z,21.82
2024-01-20T05:48:01.997Z,21.82
2024-01-20T05:49:02.117Z,21.82
2024-01-20T05:50:02.000Z,21.82
2024-01-20T05:51:02.066Z,21.82
2024-01-20T05:52:02.031Z,21.81
2024-01-20T05:53:02.107Z,21.82
2024-01-20T05:54:04.344Z,21.81
2024-01-20T05:55:02.283Z,21.82
2024-01-20T05:56:02.377Z,21.82
2024-01-20T05:57:02.486Z,21.82
2024-01-20T05:58:02.492Z,21.82
2024-01-20T05:59:02.598Z,21.82
2024-01-20T06:00:02.670Z,21.82
2024-01-20T06:01:02.726Z,21.82
2024-01-20T06:02:02.737Z,21.82
2024-01-20T06:03:02.838Z,21.82
2024-01-20T06:04:02.931Z,21.81
2024-01-20T06:05:02.981Z,21.81
2024-01-20T06:06:03.030Z,21.81
2024-01-20T06:07:03.090Z,21.81
2024-01-20T06:08:03.151Z,21.82
2024-01-20T06:09:03.222Z,21.81
2024-01-20T06:10:03.302Z,21.81
2024-01-20T06:11:03.365Z,21.81
2024-01-20T06:12:03.504Z,21.80
2024-01-20T06:13:03.514Z,21.81
2024-01-20T06:14:03.531Z,21.80
2024-01-20T06:15:03.554Z,21.81
2024-01-20T06:16:03.543Z,21.80
2024-01-20T06:17:03.548Z,21.80
2024-01-20T06:18:03.602Z,21.81
2024-01-20T06:19:03.619Z,21.81
2024-01-20T06:20:03.584Z,21.81
2024-01-20T06:21:03.643Z,21.80
2024-01-20T06:22:03.641Z,21.81
2024-01-20T06:23:03.734Z,21.80
2024-01-20T06:24:03.862Z,21.80
2024-01-20T06:25:03.869Z,21.81
2024-01-20T06:26:03.937Z,21.80
2024-01-20T06:27:04.027Z,21.81
2024-01-20T06:28:04.042Z,21.80
2024-01-20T06:29:04.083Z,21.80
2024-01-20T06:30:04.173Z,21.79
2024-01-20T06:31:04.198Z,21.79
2024-01-20T06:32:04.254Z,21.79
2024-01-20T06:33:04.424Z,21.79
2024-01-20T06:46:04.404Z,21.56
2024-01-20T06:47:04.406Z,21.65
2024-01-20T06:48:04.475Z,21.69
2024-01-20T06:49:04.595Z,21.71
2024-01-20T06:50:04.447Z,21.72
2024-01-20T06:51:04.541Z,21.73
2024-01-20T06:52:04.459Z,21.73
2024-01-20T06:53:04.484Z,21.74
2024-01-20T06:54:04.498Z,21.74
2024-01-20T06:55:04.471Z,21.74
2024-01-20T06:56:04.468Z,21.75
2024-01-20T06:57:04.533Z,21.75
2024-01-20T06:58:04.484Z,21.77
2024-01-20T06:59:04.496Z,21.77
2024-01-20T07:00:04.577Z,21.76
2024-01-20T07:01:04.517Z,21.76
2024-01-20T07:02:04.504Z,21.75
2024-01-20T07:03:04.614Z,21.75
2024-01-20T07:04:04.744Z,21.75
2024-01-20T07:05:06.219Z,21.75
2024-01-20T07:06:04.555Z,21.76
2024-01-20T07:07:04.511Z,21.75
2024-01-20T07:08:04.512Z,21.76
2024-01-20T07:09:04.547Z,21.76
2024-01-20T07:10:04.515Z,21.76
2024-01-20T07:11:04.518Z,21.75
2024-01-20T07:12:04.577Z,21.75
2024-01-20T07:13:04.514Z,21.75
2024-01-20T07:14:04.529Z,21.75
2024-01-20T07:15:04.551Z,21.76
2024-01-20T07:16:04.531Z,21.76
2024-01-20T07:17:04.535Z,21.77
2024-01-20T07:18:04.610Z,21.77
2024-01-20T07:19:04.646Z,21.77
2024-01-20T07:20:04.536Z,21.76
2024-01-20T07:21:04.573Z,21.76
2024-01-20T07:22:04.568Z,21.76
2024-01-20T07:23:04.561Z,21.76
2024-01-20T07:24:04.602Z,21.76
2024-01-20T07:25:04.570Z,21.76
2024-01-20T07:26:04.557Z,21.77
2024-01-20T07:27:04.600Z,21.77
2024-01-20T07:28:04.584Z,21.77
2024-01-20T07:29:04.569Z,21.77
2024-01-20T07:30:04.597Z,21.77
2024-01-20T07:31:04.593Z,21.77
2024-01-20T07:32:04.577Z,21.77
2024-01-20T07:33:04.674Z,21.77
2024-01-20T07:34:04.685Z,21.76
2024-01-20T07:35:04.626Z,21.76
2024-01-20T07:36:04.739Z,21.77
2024-01-20T07:37:04.599Z,21.78
2024-01-20T07:38:04.600Z,21.78
2024-01-20T07:39:04.658Z,21.77
2024-01-20T07:40:04.625Z,21.78
2024-01-20T07:41:04.641Z,21.77
2024-01-20T07:42:04.670Z,21.77
2024-01-20T07:43:04.638Z,21.76
2024-01-20T07:44:04.640Z,21.76
2024-01-20T07:45:04.702Z,21.77
2024-01-20T07:46:04.706Z,21.77
2024-01-20T07:47:04.683Z,21.78
2024-01-20T07:48:04.800Z,21.78
2024-01-20T07:49:04.845Z,21.78
2024-01-20T07:50:04.722Z,21.78
2024-01-20T07:51:04.787Z,21.77
2024-01-20T07:52:04.762Z,21.77
2024-01-20T07:53:04.775Z,21.76
2024-01-20T07:54:04.795Z,21.77
2024-01-20T07:55:04.841Z,21.77
2024-01-20T07:56:04.877Z,21.77
2024-01-20T07:57:04.949Z,21.78
2024-01-20T07:58:04.928Z,21.78
2024-01-20T07:59:05.000Z,21.79
2024-01-20T08:00:05.124Z,21.78
2024-01-20T08:01:05.114Z,21.79
2024-01-20T08:02:05.129Z,21.78
2024-01-20T08:03:05.254Z,21.77
2024-01-20T08:04:05.263Z,21.77
2024-01-20T08:05:05.277Z,21.78
2024-01-20T08:06:05.379Z,21.78
2024-01-20T08:07:05.459Z,21.78
2024-01-20T08:08:05.452Z,21.79
2024-01-20T08:09:05.609Z,21.79
2024-01-20T08:10:05.527Z,21.79
2024-01-20T08:11:05.665Z,21.78
2024-01-20T08:12:05.750Z,21.79
2024-01-20T08:13:05.776Z,21.78
2024-01-20T08:14:05.771Z,21.79
2024-01-20T08:15:05.846Z,21.80
2024-01-20T08:16:05.822Z,21.80
2024-01-20T08:17:05.846Z,21.82
2024-01-20T08:18:05.964Z,21.84
2024-01-20T08:19:06.164Z,21.85
2024-01-20T08:20:05.924Z,21.86
2024-01-20T08:21:06.004Z,21.86
2024-01-20T08:22:05.959Z,21.87
2024-01-20T08:23:06.016Z,21.86
2024-01-20T08:24:06.016Z,21.86
2024-01-20T08:25:06.018Z,21.87
2024-01-20T08:26:05.998Z,21.88
2024-01-20T08:27:06.046Z,21.90
2024-01-20T08:28:06.003Z,21.91
2024-01-20T08:29:06.014Z,21.92
2024-01-20T08:30:06.099Z,21.92
2024-01-20T08:31:06.059Z,21.93
2024-01-20T08:32:06.030Z,21.92
2024-01-20T08:33:07.914Z,21.92
2024-01-20T08:34:06.231Z,21.93
2024-01-20T08:35:06.018Z,21.94
2024-01-20T08:36:06.093Z,21.94
2024-01-20T08:37:06.026Z,21.94
2024-01-20T08:38:06.013Z,21.94
2024-01-20T08:39:06.063Z,21.94
2024-01-20T08:40:06.067Z,21.95
2024-01-20T08:41:06.041Z,21.94
2024-01-20T08:42:06.067Z,21.94
2024-01-20T08:43:06.053Z,21.94
2024-01-20T08:44:06.063Z,21.95
2024-01-20T08:45:06.100Z,21.95
2024-01-20T08:46:06.062Z,21.95
2024-01-20T08:47:06.074Z,21.95
2024-01-20T08:48:06.083Z,21.95
2024-01-20T08:49:06.126Z,21.94
2024-01-20T08:50:06.169Z,21.94
2024-01-20T08:51:06.267Z,21.94
2024-01-20T08:52:06.276Z,21.94
2024-01-20T08:53:06.432Z,21.95
2024-01-20T08:54:06.434Z,21.96
2024-01-20T08:55:06.508Z,21.97
2024-01-20T08:56:06.575Z,21.98
2024-01-20T08:57:06.636Z,21.98
2024-01-20T08:58:06.664Z,21.99
2024-01-20T08:59:06.731Z,21.99
2024-01-20T09:00:06.840Z,21.99
2024-01-20T09:01:06.824Z,22.01
2024-01-20T09:02:06.870Z,22.03
2024-01-20T09:03:07.010Z,22.05
2024-01-20T09:04:07.030Z,22.07
2024-01-20T09:05:07.058Z,22.09
2024-01-20T09:06:07.242Z,22.11
2024-01-20T09:07:07.252Z,22.11
2024-01-20T09:08:07.233Z,22.12
2024-01-20T09:09:07.354Z,22.12
2024-01-20T09:10:07.356Z,22.15
2024-01-20T09:11:07.417Z,22.17
2024-01-20T09:12:07.517Z,22.18
2024-01-20T09:13:07.546Z,22.21
2024-01-20T09:14:07.606Z,22.23
2024-01-20T09:15:07.916Z,22.25
2024-01-20T09:16:07.804Z,22.27
2024-01-20T09:17:07.792Z,22.29
2024-01-20T09:18:08.017Z,22.30
2024-01-20T09:19:07.983Z,22.32
2024-01-20T09:20:07.969Z,22.35
2024-01-20T09:21:07.853Z,22.37
2024-01-20T09:22:07.866Z,22.40
2024-01-20T09:23:07.855Z,22.42
2024-01-20T09:24:07.862Z,22.44
2024-01-20T09:25:07.844Z,22.45
2024-01-20T09:26:07.841Z,22.47
2024-01-20T09:27:07.869Z,22.50
2024-01-20T09:28:07.889Z,22.53
2024-01-20T09:29:07.900Z,22.54
2024-01-20T09:30:07.869Z,22.57
2024-01-20T09:31:07.874Z,22.59
2024-01-20T09:32:07.872Z,22.60
2024-01-20T09:33:08.038Z,22.62
2024-01-20T09:34:07.926Z,22.65
2024-01-20T09:35:07.894Z,22.66
2024-01-20T09:36:07.927Z,22.68
2024-01-20T09:37:11.202Z,22.70
2024-01-20T09:38:07.832Z,22.72
2024-01-20T09:39:07.905Z,22.75
2024-01-20T09:40:07.845Z,22.76
2024-01-20T09:41:07.825Z,22.78
2024-01-20T09:42:07.868Z,22.79
2024-01-20T09:43:07.822Z,22.81
2024-01-20T09:44:07.828Z,22.84
2024-01-20T09:45:07.867Z,22.86
2024-01-20T09:46:07.826Z,22.87
2024-01-20T09:47:07.811Z,22.89
2024-01-20T09:48:08.038Z,22.92
2024-01-20T09:49:07.981Z,22.94
2024-01-20T09:50:07.805Z,22.96
2024-01-20T09:51:07.894Z,22.98
2024-01-20T09:52:07.792Z,22.99
2024-01-20T09:53:07.814Z,23.01
2024-01-20T09:54:07.863Z,23.02
2024-01-20T09:55:07.789Z,23.05
2024-01-20T09:56:07.822Z,23.07
2024-01-20T09:57:07.818Z,23.08
2024-01-20T09:58:07.789Z,23.10
2024-01-20T09:59:07.794Z,23.12
2024-01-20T10:00:07.833Z,23.14
2024-01-20T10:01:07.897Z,23.15
2024-01-20T10:02:07.785Z,23.15
2024-01-20T10:03:10.244Z,23.16
2024-01-20T10:04:08.087Z,23.17
2024-01-20T10:05:08.027Z,23.18
2024-01-20T10:06:08.036Z,23.20
2024-01-20T10:07:08.065Z,23.22
2024-01-20T10:08:08.077Z,23.22
2024-01-20T10:09:08.125Z,23.24
2024-01-20T10:10:08.113Z,23.24
2024-01-20T10:11:08.142Z,23.25
2024-01-20T10:12:08.185Z,23.26
2024-01-20T10:13:08.158Z,23.28
2024-01-20T10:21:25.466Z,23.17
2024-01-20T10:22:08.058Z,23.25
2024-01-20T10:23:08.213Z,23.31
2024-01-20T10:24:08.075Z,23.35
2024-01-20T10:25:08.088Z,23.38
2024-01-20T10:26:08.034Z,23.40
2024-01-20T10:27:08.197Z,23.42
2024-01-20T10:28:08.069Z,23.43
2024-01-20T10:29:08.055Z,23.45
2024-01-20T10:30:08.115Z,23.48
2024-01-20T10:31:08.111Z,23.50
2024-01-20T10:32:08.134Z,23.52
2024-01-20T10:33:10.377Z,23.52
2024-01-20T10:34:08.342Z,23.53
2024-01-20T10:35:08.307Z,23.53
2024-01-20T10:36:08.150Z,23.54
2024-01-20T10:37:08.073Z,23.57
2024-01-20T10:38:08.118Z,23.59
2024-01-20T10:39:08.063Z,23.59
2024-01-20T10:40:08.049Z,23.60
2024-01-20T10:41:08.045Z,23.61
2024-01-20T10:42:08.057Z,23.61
2024-01-20T10:43:08.035Z,23.62
2024-01-20T10:44:07.989Z,23.64
2024-01-20T10:45:07.994Z,23.66
2024-01-20T10:46:07.987Z,23.67
2024-01-20T10:47:07.957Z,23.67
2024-01-20T10:48:11.820Z,23.68
2024-01-20T10:49:07.965Z,23.68
2024-01-20T10:50:07.934Z,23.69
2024-01-20T10:51:07.929Z,23.70
2024-01-20T10:52:07.906Z,23.72
2024-01-20T10:53:07.869Z,23.74
2024-01-20T10:54:09.728Z,23.75
2024-01-20T10:55:07.850Z,23.75
2024-01-20T10:56:07.824Z,23.77
2024-01-20T10:57:07.863Z,23.78
2024-01-20T10:58:07.813Z,23.80
2024-01-20T10:59:07.770Z,23.83
2024-01-20T11:00:07.765Z,23.83
2024-01-20T11:01:07.777Z,23.84
2024-01-20T11:02:07.721Z,23.85
2024-01-20T11:03:07.781Z,23.85
2024-01-20T11:04:07.839Z,23.87
2024-01-20T11:05:07.667Z,23.87
2024-01-20T11:06:07.779Z,23.88
2024-01-20T11:07:07.649Z,23.88
2024-01-20T11:08:07.615Z,23.90
2024-01-20T11:09:07.631Z,23.90
2024-01-20T11:10:07.588Z,23.92
2024-01-20T11:11:07.578Z,23.92
2024-01-20T11:12:07.629Z,23.94
2024-01-20T11:13:07.541Z,23.94
2024-01-20T11:14:07.518Z,23.95
2024-01-20T11:15:07.571Z,23.96
2024-01-20T11:16:07.495Z,23.98
2024-01-20T11:17:07.462Z,23.97
2024-01-20T11:18:07.483Z,23.98
2024-01-20T11:19:07.554Z,24.00
2024-01-20T11:20:07.402Z,24.00
2024-01-20T11:21:07.437Z,24.01
2024-01-20T11:22:07.381Z,24.02
2024-01-20T11:23:07.370Z,24.04
2024-01-20T11:24:07.345Z,24.04
2024-01-20T11:25:07.520Z,24.05
2024-01-20T11:26:07.312Z,24.06
2024-01-20T11:27:07.321Z,24.07
2024-01-20T11:28:07.274Z,24.08
2024-01-20T11:29:07.236Z,24.09
2024-01-20T11:30:07.284Z,24.09
2024-01-20T11:31:07.207Z,24.10
2024-01-20T11:32:07.192Z,24.11
2024-01-20T11:33:07.299Z,24.12
2024-01-20T11:34:07.928Z,24.13
2024-01-20T11:35:07.158Z,24.13
2024-01-20T11:36:07.182Z,24.14
2024-01-20T11:37:07.166Z,24.15
2024-01-20T11:38:07.192Z,24.15
2024-01-20T11:39:07.633Z,24.15
2024-01-20T11:40:07.197Z,24.15
2024-01-20T11:41:07.186Z,24.16
2024-01-20T11:42:08.596Z,24.16
2024-01-20T11:43:07.145Z,24.17
2024-01-20T11:44:07.132Z,24.17
2024-01-20T11:45:07.144Z,24.19
2024-01-20T11:46:07.071Z,24.19
2024-01-20T11:47:07.053Z,24.20
2024-01-20T11:48:09.483Z,24.21
2024-01-20T11:49:07.116Z,24.22
2024-01-20T11:50:07.029Z,24.24
2024-01-20T11:51:07.017Z,24.25
2024-01-20T11:52:06.948Z,24.25
2024-01-20T11:53:06.942Z,24.26
2024-01-20T11:54:08.264Z,24.26
2024-01-20T11:55:06.909Z,24.27
2024-01-20T11:56:06.893Z,24.28
2024-01-20T11:57:06.920Z,24.28
2024-01-20T11:58:06.940Z,24.30
2024-01-20T11:59:06.924Z,24.31
2024-01-20T12:00:08.320Z,24.31
2024-01-20T12:01:07.027Z,24.31
2024-01-20T12:02:06.983Z,24.33
2024-01-20T12:03:07.111Z,24.33
2024-01-20T12:04:07.083Z,24.34
2024-01-20T12:05:12.228Z,24.35
2024-01-20T12:06:11.613Z,24.35
2024-01-20T12:07:08.224Z,24.34
2024-01-20T12:08:07.089Z,24.36
2024-01-20T12:09:07.102Z,24.37
2024-01-20T12:10:07.053Z,24.37
2024-01-20T12:11:07.009Z,24.39
2024-01-20T12:12:07.006Z,24.39
2024-01-20T12:13:06.953Z,24.40
2024-01-20T12:14:06.927Z,24.40
2024-01-20T12:15:06.985Z,24.41
2024-01-20T12:16:06.887Z,24.42
2024-01-20T12:17:06.871Z,24.43
2024-01-20T12:18:06.976Z,24.42
2024-01-20T12:19:06.938Z,24.43
2024-01-20T12:20:06.818Z,24.43
2024-01-20T12:21:06.823Z,24.44
2024-01-20T12:22:06.796Z,24.45
2024-01-20T12:23:06.769Z,24.46
2024-01-20T12:24:06.799Z,24.47
2024-01-20T12:25:06.756Z,24.47
2024-01-20T12:26:06.709Z,24.48
2024-01-20T12:27:06.731Z,24.49
2024-01-20T12:28:06.686Z,24.50
2024-01-20T12:29:06.772Z,24.50
2024-01-20T12:30:06.686Z,24.51
2024-01-20T12:31:06.621Z,24.51
2024-01-20T12:32:06.660Z,24.51
2024-01-20T12:33:06.771Z,24.52
2024-01-20T12:34:06.827Z,24.53
2024-01-20T12:35:06.789Z,24.53
2024-01-20T12:36:06.834Z,24.54
2024-01-20T12:37:08.835Z,24.55
2024-01-20T12:38:06.910Z,24.55
2024-01-20T12:39:07.048Z,24.56
2024-01-20T12:40:06.979Z,24.58
2024-01-20T12:41:06.969Z,24.56
2024-01-20T12:42:06.971Z,24.56
2024-01-20T12:43:06.919Z,24.57
2024-01-20T12:44:06.885Z,24.57
2024-01-20T12:45:06.879Z,24.57
2024-01-20T12:46:06.853Z,24.57
2024-01-20T12:47:06.830Z,24.57
2024-01-20T12:48:06.892Z,24.58
2024-01-20T12:49:06.902Z,24.58
2024-01-20T12:50:06.838Z,24.59
2024-01-20T12:51:06.799Z,24.58
2024-01-20T12:52:06.718Z,24.59
2024-01-20T12:53:06.683Z,24.60
2024-01-20T12:54:06.669Z,24.59
2024-01-20T12:55:06.632Z,24.60
2024-01-20T12:56:06.618Z,24.60
2024-01-20T12:57:06.649Z,24.60
2024-01-20T12:58:06.556Z,24.60
2024-01-20T12:59:06.562Z,24.60
2024-01-20T13:00:06.534Z,24.62
2024-01-20T13:01:06.505Z,24.61
2024-01-20T13:02:06.454Z,24.62
2024-01-20T13:03:06.469Z,24.62
2024-01-20T13:04:06.417Z,24.62
2024-01-20T13:05:06.668Z,24.62
2024-01-20T13:06:06.472Z,24.63
2024-01-20T13:07:06.429Z,24.63
2024-01-20T13:08:06.284Z,24.64
2024-01-20T13:09:06.335Z,24.63
2024-01-20T13:10:06.334Z,24.64
2024-01-20T13:11:06.365Z,24.65
2024-01-20T13:12:06.420Z,24.65
2024-01-20T13:13:06.436Z,24.64
2024-01-20T13:14:06.451Z,24.65
2024-01-20T13:15:06.479Z,24.65
2024-01-20T13:16:06.429Z,24.65